sensor_id;sensor_type;location;lat;lon;timestamp;temperature;humidity
52381;DHT22;38310;52.796;6.942;2023-08-17T00:01:43;16.20;99.90
52381;DHT22;38310;52.796;6.942;2023-08-17T00:04:09;16.20;99.90
52381;DHT22;38310;52.796;6.942;2023-08-17T00:06:35;16.20;99.90
52381;DHT22;38310;52.796;6.942;2023-08-17T00:09:01;16.20;99.90
52381;DHT22;38310;52.796;6.942;2023-08-17T00:11:27;16.20;99.90
52381;DHT22;38310;52.796;6.942;2023-08-17T00:13:52;16.20;99.90
52381;DHT22;38310;52.796;6.942;2023-08-17T00:16:18;16.20;99.90
52381;DHT22;38310;52.796;6.942;2023-08-17T00:18:44;16.20;99.90
52381;DHT22;38310;52.796;6.942;2023-08-17T00:21:09;16.20;99.90
52381;DHT22;38310;52.796;6.942;2023-08-17T00:23:35;16.20;99.90
52381;DHT22;38310;52.796;6.942;2023-08-17T00:26:01;16.20;99.90
52381;DHT22;38310;52.796;6.942;2023-08-17T00:28:27;16.20;99.90
52381;DHT22;38310;52.796;6.942;2023-08-17T00:30:53;16.20;99.90
52381;DHT22;38310;52.796;6.942;2023-08-17T00:33:18;16.20;99.90
52381;DHT22;38310;52.796;6.942;2023-08-17T00:35:44;16.20;99.90
52381;DHT22;38310;52.796;6.942;2023-08-17T00:38:12;16.20;99.90
52381;DHT22;38310;52.796;6.942;2023-08-17T00:40:38;16.10;99.90
52381;DHT22;38310;52.796;6.942;2023-08-17T00:43:04;16.10;99.90
52381;DHT22;38310;52.796;6.942;2023-08-17T00:45:31;16.10;99.90
52381;DHT22;38310;52.796;6.942;2023-08-17T00:47:57;16.10;99.90
52381;DHT22;38310;52.796;6.942;2023-08-17T00:50:24;16.10;99.90
52381;DHT22;38310;52.796;6.942;2023-08-17T00:52:52;16.10;99.90
52381;DHT22;38310;52.796;6.942;2023-08-17T00:55:19;16.10;99.90
52381;DHT22;38310;52.796;6.942;2023-08-17T00:57:45;16.10;99.90
52381;DHT22;38310;52.796;6.942;2023-08-17T01:00:12;16.10;99.90
52381;DHT22;38310;52.796;6.942;2023-08-17T01:02:42;16.10;99.90
52381;DHT22;38310;52.796;6.942;2023-08-17T01:05:08;16.10;99.90
52381;DHT22;38310;52.796;6.942;2023-08-17T01:07:34;16.10;99.90
52381;DHT22;38310;52.796;6.942;2023-08-17T01:10:02;16.10;99.90
52381;DHT22;38310;52.796;6.942;2023-08-17T01:12:35;16.10;99.90
52381;DHT22;38310;52.796;6.942;2023-08-17T01:15:04;16.10;99.90
52381;DHT22;38310;52.796;6.942;2023-08-17T01:17:43;16.10;99.90
52381;DHT22;38310;52.796;6.942;2023-08-17T01:20:10;16.10;99.90
52381;DHT22;38310;52.796;6.942;2023-08-17T01:22:41;16.10;99.90
52381;DHT22;38310;52.796;6.942;2023-08-17T01:25:08;16.10;99.90
52381;DHT22;38310;52.796;6.942;2023-08-17T01:27:40;16.10;99.90
52381;DHT22;38310;52.796;6.942;2023-08-17T01:30:07;16.10;99.90
52381;DHT22;38310;52.796;6.942;2023-08-17T01:32:48;16.10;99.90
52381;DHT22;38310;52.796;6.942;2023-08-17T01:35:30;16.10;99.90
52381;DHT22;38310;52.796;6.942;2023-08-17T01:38:00;16.10;99.90
52381;DHT22;38310;52.796;6.942;2023-08-17T01:40:31;16.10;99.90
52381;DHT22;38310;52.796;6.942;2023-08-17T01:42:58;16.10;99.90
52381;DHT22;38310;52.796;6.942;2023-08-17T01:45:25;16.10;99.90
52381;DHT22;38310;52.796;6.942;2023-08-17T01:47:50;16.10;99.90
52381;DHT22;38310;52.796;6.942;2023-08-17T01:50:16;16.10;99.90
52381;DHT22;38310;52.796;6.942;2023-08-17T01:52:42;16.10;99.90
52381;DHT22;38310;52.796;6.942;2023-08-17T01:55:08;16.10;99.90
52381;DHT22;38310;52.796;6.942;2023-08-17T01:57:34;16.30;99.90
52381;DHT22;38310;52.796;6.942;2023-08-17T02:00:01;16.10;99.90
52381;DHT22;38310;52.796;6.942;2023-08-17T02:02:27;16.00;99.90
52381;DHT22;38310;52.796;6.942;2023-08-17T02:04:52;16.10;99.90
52381;DHT22;38310;52.796;6.942;2023-08-17T02:07:18;16.10;99.90
52381;DHT22;38310;52.796;6.942;2023-08-17T02:09:44;16.00;99.90
52381;DHT22;38310;52.796;6.942;2023-08-17T02:12:09;16.00;99.90
52381;DHT22;38310;52.796;6.942;2023-08-17T02:14:35;16.00;99.90
52381;DHT22;38310;52.796;6.942;2023-08-17T02:17:01;16.00;99.90
52381;DHT22;38310;52.796;6.942;2023-08-17T02:19:26;16.00;99.90
52381;DHT22;38310;52.796;6.942;2023-08-17T02:21:52;16.00;99.90
52381;DHT22;38310;52.796;6.942;2023-08-17T02:24:18;16.00;99.90
52381;DHT22;38310;52.796;6.942;2023-08-17T02:26:43;16.00;99.90
52381;DHT22;38310;52.796;6.942;2023-08-17T02:29:09;16.00;99.90
52381;DHT22;38310;52.796;6.942;2023-08-17T02:31:35;16.00;99.90
52381;DHT22;38310;52.796;6.942;2023-08-17T02:34:00;15.90;99.90
52381;DHT22;38310;52.796;6.942;2023-08-17T02:36:31;15.90;99.90
52381;DHT22;38310;52.796;6.942;2023-08-17T02:38:57;15.90;99.90
52381;DHT22;38310;52.796;6.942;2023-08-17T02:41:22;15.90;99.90
52381;DHT22;38310;52.796;6.942;2023-08-17T02:43:48;15.90;99.90
52381;DHT22;38310;52.796;6.942;2023-08-17T02:46:14;15.90;99.90
52381;DHT22;38310;52.796;6.942;2023-08-17T02:48:40;15.90;99.90
52381;DHT22;38310;52.796;6.942;2023-08-17T02:51:06;15.90;99.90
52381;DHT22;38310;52.796;6.942;2023-08-17T02:53:32;15.90;99.90
52381;DHT22;38310;52.796;6.942;2023-08-17T02:55:57;15.90;99.90
52381;DHT22;38310;52.796;6.942;2023-08-17T02:58:23;15.90;99.90
52381;DHT22;38310;52.796;6.942;2023-08-17T03:00:51;15.90;99.90
52381;DHT22;38310;52.796;6.942;2023-08-17T03:03:17;15.90;99.90
52381;DHT22;38310;52.796;6.942;2023-08-17T03:05:43;15.90;99.90
52381;DHT22;38310;52.796;6.942;2023-08-17T03:08:09;15.90;99.90
52381;DHT22;38310;52.796;6.942;2023-08-17T03:10:35;15.80;99.90
52381;DHT22;38310;52.796;6.942;2023-08-17T03:13:00;15.80;99.90
52381;DHT22;38310;52.796;6.942;2023-08-17T03:15:26;15.80;99.90
52381;DHT22;38310;52.796;6.942;2023-08-17T03:17:52;15.80;99.90
52381;DHT22;38310;52.796;6.942;2023-08-17T03:20:17;15.80;99.90
52381;DHT22;38310;52.796;6.942;2023-08-17T03:22:43;15.80;99.90
52381;DHT22;38310;52.796;6.942;2023-08-17T03:25:09;15.80;99.90
52381;DHT22;38310;52.796;6.942;2023-08-17T03:27:35;15.80;99.90
52381;DHT22;38310;52.796;6.942;2023-08-17T03:30:02;15.70;99.90
52381;DHT22;38310;52.796;6.942;2023-08-17T03:32:28;15.70;99.90
52381;DHT22;38310;52.796;6.942;2023-08-17T03:34:54;15.70;99.90
52381;DHT22;38310;52.796;6.942;2023-08-17T03:37:20;15.70;99.90
52381;DHT22;38310;52.796;6.942;2023-08-17T03:39:45;15.60;99.90
52381;DHT22;38310;52.796;6.942;2023-08-17T03:42:11;15.60;99.90
52381;DHT22;38310;52.796;6.942;2023-08-17T03:44:37;15.60;99.90
52381;DHT22;38310;52.796;6.942;2023-08-17T03:47:02;15.60;99.90
52381;DHT22;38310;52.796;6.942;2023-08-17T03:49:28;15.60;99.90
52381;DHT22;38310;52.796;6.942;2023-08-17T03:51:54;15.60;99.90
52381;DHT22;38310;52.796;6.942;2023-08-17T03:54:20;15.60;99.90
52381;DHT22;38310;52.796;6.942;2023-08-17T03:56:45;15.60;99.90
52381;DHT22;38310;52.796;6.942;2023-08-17T03:59:11;15.60;99.90
52381;DHT22;38310;52.796;6.942;2023-08-17T04:01:37;15.70;99.90
52381;DHT22;38310;52.796;6.942;2023-08-17T04:04:02;15.70;99.90
52381;DHT22;38310;52.796;6.942;2023-08-17T04:06:28;15.70;99.90
52381;DHT22;38310;52.796;6.942;2023-08-17T04:08:54;15.70;99.90
52381;DHT22;38310;52.796;6.942;2023-08-17T04:11:20;15.70;99.90
52381;DHT22;38310;52.796;6.942;2023-08-17T04:13:45;15.70;99.90
52381;DHT22;38310;52.796;6.942;2023-08-17T04:16:11;15.70;99.90
52381;DHT22;38310;52.796;6.942;2023-08-17T04:18:37;15.70;99.90
52381;DHT22;38310;52.796;6.942;2023-08-17T04:21:02;15.70;99.90
52381;DHT22;38310;52.796;6.942;2023-08-17T04:23:28;15.80;99.90
52381;DHT22;38310;52.796;6.942;2023-08-17T04:25:54;15.70;99.90
52381;DHT22;38310;52.796;6.942;2023-08-17T04:28:20;15.70;99.90
52381;DHT22;38310;52.796;6.942;2023-08-17T04:30:46;15.80;99.90
52381;DHT22;38310;52.796;6.942;2023-08-17T04:33:12;15.80;99.90
52381;DHT22;38310;52.796;6.942;2023-08-17T04:35:38;15.80;99.90
52381;DHT22;38310;52.796;6.942;2023-08-17T04:38:04;15.80;99.90
52381;DHT22;38310;52.796;6.942;2023-08-17T04:40:30;15.80;99.90
52381;DHT22;38310;52.796;6.942;2023-08-17T04:42:57;15.80;99.90
52381;DHT22;38310;52.796;6.942;2023-08-17T04:45:22;15.80;99.90
52381;DHT22;38310;52.796;6.942;2023-08-17T04:47:48;15.90;99.90
52381;DHT22;38310;52.796;6.942;2023-08-17T04:50:15;15.80;99.90
52381;DHT22;38310;52.796;6.942;2023-08-17T04:52:44;15.90;99.90
52381;DHT22;38310;52.796;6.942;2023-08-17T04:55:13;15.90;99.90
52381;DHT22;38310;52.796;6.942;2023-08-17T04:57:39;15.90;99.90
52381;DHT22;38310;52.796;6.942;2023-08-17T05:00:05;15.90;99.90
52381;DHT22;38310;52.796;6.942;2023-08-17T05:02:35;15.90;99.90
52381;DHT22;38310;52.796;6.942;2023-08-17T05:05:04;15.90;99.90
52381;DHT22;38310;52.796;6.942;2023-08-17T05:07:30;15.90;99.90
52381;DHT22;38310;52.796;6.942;2023-08-17T05:09:55;15.90;99.90
52381;DHT22;38310;52.796;6.942;2023-08-17T05:12:21;15.90;99.90
52381;DHT22;38310;52.796;6.942;2023-08-17T05:14:47;15.90;99.90
52381;DHT22;38310;52.796;6.942;2023-08-17T05:17:13;15.90;99.90
52381;DHT22;38310;52.796;6.942;2023-08-17T05:19:38;16.00;99.90
52381;DHT22;38310;52.796;6.942;2023-08-17T05:22:10;16.00;99.90
52381;DHT22;38310;52.796;6.942;2023-08-17T05:24:35;16.00;99.90
52381;DHT22;38310;52.796;6.942;2023-08-17T05:27:01;16.00;99.90
52381;DHT22;38310;52.796;6.942;2023-08-17T05:29:27;16.00;99.90
52381;DHT22;38310;52.796;6.942;2023-08-17T05:31:53;16.70;99.90
52381;DHT22;38310;52.796;6.942;2023-08-17T05:34:18;16.00;99.90
52381;DHT22;38310;52.796;6.942;2023-08-17T05:36:44;16.00;99.90
52381;DHT22;38310;52.796;6.942;2023-08-17T05:39:10;16.00;99.90
52381;DHT22;38310;52.796;6.942;2023-08-17T05:41:36;16.10;99.90
52381;DHT22;38310;52.796;6.942;2023-08-17T05:44:02;16.10;99.90
52381;DHT22;38310;52.796;6.942;2023-08-17T05:46:27;16.10;99.90
52381;DHT22;38310;52.796;6.942;2023-08-17T05:48:53;16.10;99.90
52381;DHT22;38310;52.796;6.942;2023-08-17T05:51:19;16.20;99.90
52381;DHT22;38310;52.796;6.942;2023-08-17T05:53:45;16.20;99.90
52381;DHT22;38310;52.796;6.942;2023-08-17T05:56:10;16.20;99.90
52381;DHT22;38310;52.796;6.942;2023-08-17T05:58:36;16.30;99.90
52381;DHT22;38310;52.796;6.942;2023-08-17T06:01:09;16.30;99.90
52381;DHT22;38310;52.796;6.942;2023-08-17T06:03:36;16.30;99.90
52381;DHT22;38310;52.796;6.942;2023-08-17T06:06:05;16.30;99.90
52381;DHT22;38310;52.796;6.942;2023-08-17T06:08:31;16.40;99.90
52381;DHT22;38310;52.796;6.942;2023-08-17T06:10:57;16.40;99.90
52381;DHT22;38310;52.796;6.942;2023-08-17T06:13:23;16.40;99.90
52381;DHT22;38310;52.796;6.942;2023-08-17T06:15:49;16.50;99.90
52381;DHT22;38310;52.796;6.942;2023-08-17T06:18:14;16.50;99.90
52381;DHT22;38310;52.796;6.942;2023-08-17T06:20:40;16.50;99.90
52381;DHT22;38310;52.796;6.942;2023-08-17T06:23:06;16.60;99.90
52381;DHT22;38310;52.796;6.942;2023-08-17T06:25:32;16.60;99.90
52381;DHT22;38310;52.796;6.942;2023-08-17T06:27:58;16.70;99.90
52381;DHT22;38310;52.796;6.942;2023-08-17T06:30:24;16.80;99.90
52381;DHT22;38310;52.796;6.942;2023-08-17T06:32:52;16.80;99.90
52381;DHT22;38310;52.796;6.942;2023-08-17T06:35:18;16.80;99.90
52381;DHT22;38310;52.796;6.942;2023-08-17T06:37:44;16.90;99.90
52381;DHT22;38310;52.796;6.942;2023-08-17T06:40:11;16.90;99.90
52381;DHT22;38310;52.796;6.942;2023-08-17T06:42:37;16.90;99.90
52381;DHT22;38310;52.796;6.942;2023-08-17T06:45:04;16.90;99.90
52381;DHT22;38310;52.796;6.942;2023-08-17T06:47:30;17.00;99.90
52381;DHT22;38310;52.796;6.942;2023-08-17T06:49:56;17.00;99.90
52381;DHT22;38310;52.796;6.942;2023-08-17T06:52:23;17.00;99.90
52381;DHT22;38310;52.796;6.942;2023-08-17T06:54:50;17.00;99.90
52381;DHT22;38310;52.796;6.942;2023-08-17T06:57:15;17.10;99.90
52381;DHT22;38310;52.796;6.942;2023-08-17T06:59:41;17.00;99.90
52381;DHT22;38310;52.796;6.942;2023-08-17T07:02:07;17.10;99.90
52381;DHT22;38310;52.796;6.942;2023-08-17T07:04:33;17.10;99.90
52381;DHT22;38310;52.796;6.942;2023-08-17T07:06:59;17.10;99.90
52381;DHT22;38310;52.796;6.942;2023-08-17T07:09:25;17.10;99.90
52381;DHT22;38310;52.796;6.942;2023-08-17T07:11:53;17.10;99.90
52381;DHT22;38310;52.796;6.942;2023-08-17T07:14:18;17.20;99.90
52381;DHT22;38310;52.796;6.942;2023-08-17T07:16:44;17.20;99.90
52381;DHT22;38310;52.796;6.942;2023-08-17T07:19:10;17.20;99.90
52381;DHT22;38310;52.796;6.942;2023-08-17T07:21:36;17.20;99.90
52381;DHT22;38310;52.796;6.942;2023-08-17T07:24:12;17.20;99.90
52381;DHT22;38310;52.796;6.942;2023-08-17T07:26:39;17.20;99.90
52381;DHT22;38310;52.796;6.942;2023-08-17T07:29:04;17.20;99.90
52381;DHT22;38310;52.796;6.942;2023-08-17T07:31:30;17.20;99.90
52381;DHT22;38310;52.796;6.942;2023-08-17T07:33:56;17.30;99.90
52381;DHT22;38310;52.796;6.942;2023-08-17T07:36:22;17.30;99.90
52381;DHT22;38310;52.796;6.942;2023-08-17T07:38:48;17.30;99.90
52381;DHT22;38310;52.796;6.942;2023-08-17T07:41:13;17.30;99.90
52381;DHT22;38310;52.796;6.942;2023-08-17T07:43:39;17.40;99.90
52381;DHT22;38310;52.796;6.942;2023-08-17T07:46:04;17.40;99.90
52381;DHT22;38310;52.796;6.942;2023-08-17T07:48:30;17.40;99.90
52381;DHT22;38310;52.796;6.942;2023-08-17T07:50:59;17.50;99.90
52381;DHT22;38310;52.796;6.942;2023-08-17T07:53:25;17.50;99.90
52381;DHT22;38310;52.796;6.942;2023-08-17T07:55:51;17.50;99.90
52381;DHT22;38310;52.796;6.942;2023-08-17T07:58:16;17.60;99.90
52381;DHT22;38310;52.796;6.942;2023-08-17T08:00:42;17.60;99.90
52381;DHT22;38310;52.796;6.942;2023-08-17T08:03:08;17.60;99.90
52381;DHT22;38310;52.796;6.942;2023-08-17T08:05:33;17.60;99.90
52381;DHT22;38310;52.796;6.942;2023-08-17T08:07:59;17.60;99.90
52381;DHT22;38310;52.796;6.942;2023-08-17T08:10:26;17.60;99.90
52381;DHT22;38310;52.796;6.942;2023-08-17T08:12:52;17.70;99.90
52381;DHT22;38310;52.796;6.942;2023-08-17T08:15:17;17.70;99.90
52381;DHT22;38310;52.796;6.942;2023-08-17T08:17:43;17.80;99.90
52381;DHT22;38310;52.796;6.942;2023-08-17T08:20:09;17.80;99.90
52381;DHT22;38310;52.796;6.942;2023-08-17T08:22:34;17.90;99.90
52381;DHT22;38310;52.796;6.942;2023-08-17T08:25:00;17.90;99.90
52381;DHT22;38310;52.796;6.942;2023-08-17T08:27:26;17.90;99.90
52381;DHT22;38310;52.796;6.942;2023-08-17T08:29:51;17.90;99.90
52381;DHT22;38310;52.796;6.942;2023-08-17T08:32:17;17.90;99.90
52381;DHT22;38310;52.796;6.942;2023-08-17T08:34:43;18.00;99.90
52381;DHT22;38310;52.796;6.942;2023-08-17T08:37:09;18.00;99.90
52381;DHT22;38310;52.796;6.942;2023-08-17T08:39:51;18.00;99.90
52381;DHT22;38310;52.796;6.942;2023-08-17T08:42:18;18.10;99.90
52381;DHT22;38310;52.796;6.942;2023-08-17T08:44:44;18.10;99.90
52381;DHT22;38310;52.796;6.942;2023-08-17T08:47:12;18.10;99.90
52381;DHT22;38310;52.796;6.942;2023-08-17T08:49:39;18.10;99.90
52381;DHT22;38310;52.796;6.942;2023-08-17T08:52:13;18.10;99.90
52381;DHT22;38310;52.796;6.942;2023-08-17T08:54:43;18.10;99.90
52381;DHT22;38310;52.796;6.942;2023-08-17T08:57:13;18.20;99.90
52381;DHT22;38310;52.796;6.942;2023-08-17T08:59:41;18.20;99.90
52381;DHT22;38310;52.796;6.942;2023-08-17T09:02:15;18.30;99.90
52381;DHT22;38310;52.796;6.942;2023-08-17T09:04:45;18.30;99.90
52381;DHT22;38310;52.796;6.942;2023-08-17T09:07:14;18.40;99.90
52381;DHT22;38310;52.796;6.942;2023-08-17T09:09:44;18.40;99.90
52381;DHT22;38310;52.796;6.942;2023-08-17T09:12:10;18.50;99.90
52381;DHT22;38310;52.796;6.942;2023-08-17T09:14:36;18.60;99.90
52381;DHT22;38310;52.796;6.942;2023-08-17T09:17:03;18.60;99.90
52381;DHT22;38310;52.796;6.942;2023-08-17T09:19:31;18.70;99.90
52381;DHT22;38310;52.796;6.942;2023-08-17T09:21:57;18.70;99.90
52381;DHT22;38310;52.796;6.942;2023-08-17T09:24:23;18.70;99.90
52381;DHT22;38310;52.796;6.942;2023-08-17T09:26:49;18.70;99.90
52381;DHT22;38310;52.796;6.942;2023-08-17T09:29:19;18.80;99.90
52381;DHT22;38310;52.796;6.942;2023-08-17T09:31:48;18.80;99.90
52381;DHT22;38310;52.796;6.942;2023-08-17T09:34:17;18.80;99.90
52381;DHT22;38310;52.796;6.942;2023-08-17T09:36:46;18.80;99.90
52381;DHT22;38310;52.796;6.942;2023-08-17T09:39:12;18.80;99.90
52381;DHT22;38310;52.796;6.942;2023-08-17T09:41:38;18.80;99.90
52381;DHT22;38310;52.796;6.942;2023-08-17T09:44:08;18.80;99.90
52381;DHT22;38310;52.796;6.942;2023-08-17T09:46:34;18.80;99.90
52381;DHT22;38310;52.796;6.942;2023-08-17T09:49:02;18.80;99.90
52381;DHT22;38310;52.796;6.942;2023-08-17T09:51:30;18.80;99.90
52381;DHT22;38310;52.796;6.942;2023-08-17T09:53:57;18.80;99.90
52381;DHT22;38310;52.796;6.942;2023-08-17T09:56:23;18.80;99.90
52381;DHT22;38310;52.796;6.942;2023-08-17T09:58:50;18.80;99.90
52381;DHT22;38310;52.796;6.942;2023-08-17T10:01:16;18.70;99.90
52381;DHT22;38310;52.796;6.942;2023-08-17T10:03:43;19.30;99.90
52381;DHT22;38310;52.796;6.942;2023-08-17T10:06:13;18.80;99.90
52381;DHT22;38310;52.796;6.942;2023-08-17T10:08:45;18.80;99.90
52381;DHT22;38310;52.796;6.942;2023-08-17T10:11:13;18.90;99.90
52381;DHT22;38310;52.796;6.942;2023-08-17T10:13:43;18.90;99.90
52381;DHT22;38310;52.796;6.942;2023-08-17T10:18:52;18.80;99.90
52381;DHT22;38310;52.796;6.942;2023-08-17T10:21:31;18.90;99.90
52381;DHT22;38310;52.796;6.942;2023-08-17T10:23:59;18.90;99.90
52381;DHT22;38310;52.796;6.942;2023-08-17T10:26:25;18.90;99.90
52381;DHT22;38310;52.796;6.942;2023-08-17T10:28:52;18.90;99.90
52381;DHT22;38310;52.796;6.942;2023-08-17T10:31:19;19.00;99.90
52381;DHT22;38310;52.796;6.942;2023-08-17T10:33:46;19.10;99.90
52381;DHT22;38310;52.796;6.942;2023-08-17T10:36:14;19.10;99.90
52381;DHT22;38310;52.796;6.942;2023-08-17T10:38:40;19.10;99.90
52381;DHT22;38310;52.796;6.942;2023-08-17T10:41:14;19.10;99.90
52381;DHT22;38310;52.796;6.942;2023-08-17T10:43:59;19.30;99.90
52381;DHT22;38310;52.796;6.942;2023-08-17T10:46:35;19.30;99.90
52381;DHT22;38310;52.796;6.942;2023-08-17T10:49:04;19.40;99.90
52381;DHT22;38310;52.796;6.942;2023-08-17T10:51:31;19.50;99.90
52381;DHT22;38310;52.796;6.942;2023-08-17T10:54:06;19.50;99.90
52381;DHT22;38310;52.796;6.942;2023-08-17T10:56:32;19.50;99.90
52381;DHT22;38310;52.796;6.942;2023-08-17T10:59:01;19.50;99.90
52381;DHT22;38310;52.796;6.942;2023-08-17T11:01:34;19.50;99.90
52381;DHT22;38310;52.796;6.942;2023-08-17T11:04:18;19.60;99.90
52381;DHT22;38310;52.796;6.942;2023-08-17T11:06:44;19.60;99.90
52381;DHT22;38310;52.796;6.942;2023-08-17T11:09:10;19.70;99.90
52381;DHT22;38310;52.796;6.942;2023-08-17T11:11:37;19.80;99.90
52381;DHT22;38310;52.796;6.942;2023-08-17T11:14:03;20.00;99.90
52381;DHT22;38310;52.796;6.942;2023-08-17T11:16:29;20.20;99.90
52381;DHT22;38310;52.796;6.942;2023-08-17T11:18:55;20.30;99.90
52381;DHT22;38310;52.796;6.942;2023-08-17T11:21:24;20.30;99.90
52381;DHT22;38310;52.796;6.942;2023-08-17T11:23:49;20.20;99.90
52381;DHT22;38310;52.796;6.942;2023-08-17T11:26:16;20.10;99.90
52381;DHT22;38310;52.796;6.942;2023-08-17T11:28:43;20.10;99.90
52381;DHT22;38310;52.796;6.942;2023-08-17T11:31:11;20.10;99.90
52381;DHT22;38310;52.796;6.942;2023-08-17T11:33:38;20.10;99.90
52381;DHT22;38310;52.796;6.942;2023-08-17T11:36:06;20.20;99.90
52381;DHT22;38310;52.796;6.942;2023-08-17T11:38:34;20.30;99.90
52381;DHT22;38310;52.796;6.942;2023-08-17T11:41:01;20.20;99.90
52381;DHT22;38310;52.796;6.942;2023-08-17T11:43:29;20.40;99.90
52381;DHT22;38310;52.796;6.942;2023-08-17T11:45:56;20.30;99.90
52381;DHT22;38310;52.796;6.942;2023-08-17T11:48:23;20.20;99.90
52381;DHT22;38310;52.796;6.942;2023-08-17T11:50:49;20.20;99.90
52381;DHT22;38310;52.796;6.942;2023-08-17T11:53:14;20.10;99.90
52381;DHT22;38310;52.796;6.942;2023-08-17T11:55:41;20.10;99.90
52381;DHT22;38310;52.796;6.942;2023-08-17T11:58:06;20.00;99.90
52381;DHT22;38310;52.796;6.942;2023-08-17T12:00:36;20.10;99.90
52381;DHT22;38310;52.796;6.942;2023-08-17T12:03:04;20.00;99.90
52381;DHT22;38310;52.796;6.942;2023-08-17T12:05:31;20.10;99.90
52381;DHT22;38310;52.796;6.942;2023-08-17T12:07:59;20.10;99.90
52381;DHT22;38310;52.796;6.942;2023-08-17T12:10:28;20.10;99.90
52381;DHT22;38310;52.796;6.942;2023-08-17T12:12:57;20.10;99.90
52381;DHT22;38310;52.796;6.942;2023-08-17T12:15:24;20.10;99.90
52381;DHT22;38310;52.796;6.942;2023-08-17T12:17:50;20.10;99.90
52381;DHT22;38310;52.796;6.942;2023-08-17T12:20:19;20.10;99.90
52381;DHT22;38310;52.796;6.942;2023-08-17T12:22:46;20.10;99.90
52381;DHT22;38310;52.796;6.942;2023-08-17T12:25:12;20.10;99.90
52381;DHT22;38310;52.796;6.942;2023-08-17T12:27:39;20.10;99.90
52381;DHT22;38310;52.796;6.942;2023-08-17T12:30:11;20.20;99.90
52381;DHT22;38310;52.796;6.942;2023-08-17T12:32:36;20.20;99.90
52381;DHT22;38310;52.796;6.942;2023-08-17T12:35:03;20.30;99.90
52381;DHT22;38310;52.796;6.942;2023-08-17T12:37:29;20.30;99.90
52381;DHT22;38310;52.796;6.942;2023-08-17T12:39:55;20.30;99.90
52381;DHT22;38310;52.796;6.942;2023-08-17T12:42:21;20.30;99.90
52381;DHT22;38310;52.796;6.942;2023-08-17T12:44:47;20.30;99.90
52381;DHT22;38310;52.796;6.942;2023-08-17T12:47:12;20.30;99.90
52381;DHT22;38310;52.796;6.942;2023-08-17T12:49:38;20.40;99.90
52381;DHT22;38310;52.796;6.942;2023-08-17T12:52:04;20.30;99.90
52381;DHT22;38310;52.796;6.942;2023-08-17T12:54:30;20.30;99.90
52381;DHT22;38310;52.796;6.942;2023-08-17T12:56:55;20.30;99.90
52381;DHT22;38310;52.796;6.942;2023-08-17T12:59:21;20.40;99.90
52381;DHT22;38310;52.796;6.942;2023-08-17T13:01:47;20.40;99.90
52381;DHT22;38310;52.796;6.942;2023-08-17T13:04:13;20.50;99.90
52381;DHT22;38310;52.796;6.942;2023-08-17T13:06:38;20.50;99.90
52381;DHT22;38310;52.796;6.942;2023-08-17T13:09:05;20.50;99.90
52381;DHT22;38310;52.796;6.942;2023-08-17T13:11:31;20.50;99.90
52381;DHT22;38310;52.796;6.942;2023-08-17T13:13:57;20.60;99.90
52381;DHT22;38310;52.796;6.942;2023-08-17T13:16:23;20.60;99.90
52381;DHT22;38310;52.796;6.942;2023-08-17T13:18:49;20.60;99.90
52381;DHT22;38310;52.796;6.942;2023-08-17T13:21:15;20.60;99.90
52381;DHT22;38310;52.796;6.942;2023-08-17T13:23:43;20.70;99.90
52381;DHT22;38310;52.796;6.942;2023-08-17T13:26:10;20.70;99.90
52381;DHT22;38310;52.796;6.942;2023-08-17T13:28:35;20.60;99.90
52381;DHT22;38310;52.796;6.942;2023-08-17T13:31:01;20.70;99.90
52381;DHT22;38310;52.796;6.942;2023-08-17T13:33:27;20.70;99.90
52381;DHT22;38310;52.796;6.942;2023-08-17T13:35:54;20.80;99.90
52381;DHT22;38310;52.796;6.942;2023-08-17T13:38:20;20.70;99.90
52381;DHT22;38310;52.796;6.942;2023-08-17T13:40:45;20.70;99.90
52381;DHT22;38310;52.796;6.942;2023-08-17T13:43:11;20.80;99.90
52381;DHT22;38310;52.796;6.942;2023-08-17T13:45:40;20.90;99.90
52381;DHT22;38310;52.796;6.942;2023-08-17T13:48:08;20.80;99.90
52381;DHT22;38310;52.796;6.942;2023-08-17T13:50:38;20.90;99.90
52381;DHT22;38310;52.796;6.942;2023-08-17T13:53:04;20.90;99.90
52381;DHT22;38310;52.796;6.942;2023-08-17T13:55:30;20.90;99.90
52381;DHT22;38310;52.796;6.942;2023-08-17T13:57:56;20.90;99.90
52381;DHT22;38310;52.796;6.942;2023-08-17T14:00:22;20.90;99.90
52381;DHT22;38310;52.796;6.942;2023-08-17T14:02:48;20.90;99.90
52381;DHT22;38310;52.796;6.942;2023-08-17T14:05:14;20.90;99.90
52381;DHT22;38310;52.796;6.942;2023-08-17T14:07:40;20.90;99.90
52381;DHT22;38310;52.796;6.942;2023-08-17T14:10:06;20.90;99.90
52381;DHT22;38310;52.796;6.942;2023-08-17T14:12:31;20.90;99.90
52381;DHT22;38310;52.796;6.942;2023-08-17T14:14:57;20.90;99.90
52381;DHT22;38310;52.796;6.942;2023-08-17T14:17:24;20.80;99.90
52381;DHT22;38310;52.796;6.942;2023-08-17T14:19:49;20.70;99.90
52381;DHT22;38310;52.796;6.942;2023-08-17T14:22:15;20.80;99.90
52381;DHT22;38310;52.796;6.942;2023-08-17T14:24:41;20.80;99.90
52381;DHT22;38310;52.796;6.942;2023-08-17T14:27:06;20.80;99.90
52381;DHT22;38310;52.796;6.942;2023-08-17T14:29:32;20.90;99.90
52381;DHT22;38310;52.796;6.942;2023-08-17T14:31:58;20.90;99.90
52381;DHT22;38310;52.796;6.942;2023-08-17T14:34:23;20.90;99.90
52381;DHT22;38310;52.796;6.942;2023-08-17T14:36:49;21.00;99.90
52381;DHT22;38310;52.796;6.942;2023-08-17T14:39:15;21.00;99.90
52381;DHT22;38310;52.796;6.942;2023-08-17T14:41:40;21.00;99.90
52381;DHT22;38310;52.796;6.942;2023-08-17T14:44:06;21.00;99.90
52381;DHT22;38310;52.796;6.942;2023-08-17T14:46:32;21.00;99.90
52381;DHT22;38310;52.796;6.942;2023-08-17T14:48:58;21.00;99.90
52381;DHT22;38310;52.796;6.942;2023-08-17T14:51:24;21.10;99.90
52381;DHT22;38310;52.796;6.942;2023-08-17T14:53:50;21.10;99.90
52381;DHT22;38310;52.796;6.942;2023-08-17T14:56:16;21.10;99.90
52381;DHT22;38310;52.796;6.942;2023-08-17T14:58:42;21.20;99.90
52381;DHT22;38310;52.796;6.942;2023-08-17T15:01:07;21.30;99.90
52381;DHT22;38310;52.796;6.942;2023-08-17T15:03:33;21.40;99.90
52381;DHT22;38310;52.796;6.942;2023-08-17T15:05:59;21.40;99.90
52381;DHT22;38310;52.796;6.942;2023-08-17T15:08:25;21.40;99.90
52381;DHT22;38310;52.796;6.942;2023-08-17T15:10:51;21.30;99.90
52381;DHT22;38310;52.796;6.942;2023-08-17T15:13:17;21.20;99.90
52381;DHT22;38310;52.796;6.942;2023-08-17T15:15:46;21.20;99.90
52381;DHT22;38310;52.796;6.942;2023-08-17T15:18:11;21.20;99.90
52381;DHT22;38310;52.796;6.942;2023-08-17T15:20:37;21.20;99.90
52381;DHT22;38310;52.796;6.942;2023-08-17T15:23:03;21.10;99.90
52381;DHT22;38310;52.796;6.942;2023-08-17T15:25:29;21.10;99.90
52381;DHT22;38310;52.796;6.942;2023-08-17T15:27:54;21.10;99.90
52381;DHT22;38310;52.796;6.942;2023-08-17T15:30:20;21.10;99.90